首页
METAR-TAF:

METAR-TAF

机场 :

塞舌尔国际机场

维多利亚, 马埃岛, 塞舌尔

纬度: 04-40S, 经度: 055-31E, 海拔: 3米

当前天气观测

该预报发布于13分钟前的00:00 UTC
风速13节,风向东南
温度 25°C
湿度 83%
气压 1013 hPa

METAR: FSIA 170000Z AUTO 13013KT //// R13///// // BKN016/// BKN020/// 25/22 Q1013

时间: 04:13 (00:13 UTC)

预报

该预报发布于1小时和11分钟前的23:02 UTC
预报有效从17日的 00点(UTC)到 17日的 24点(UTC)
风速15节,风向东南,有时为20节阵风
能见度10公里或以上
散云层高于2000英尺
短暂存在
从 17日的 12点(UTC)到 17日的 20点(UTC)
能見度: 8000
多云层高于1700英尺
小阵雨

TAF: FSIA 162302Z 1700/1724 14015G20KT 9999 SCT020 TEMPO 1712/1720 8000 -SHRA BKN017

超过4000个机场的气象观测和天气预报(METAR&TAF报告)。

可查询的气象台以黄色和红色小点在地图上表示。

将鼠标移到小点上方,可查看气象台名称。

然后点击查看天气观测和预报。

如需切换地图:点击带黑十字的绿色按钮放大地图;点击带横线的绿色按钮缩小地图;或者点击绿色箭头查看邻近地区的地图。


METAR-TAF: